Time;durP1;ratioP1;P1;durP2;ratioP2;P2;SDS_P1;SDS_P2;PMS_P1;PMS_P2;Temp;Humidity;BMP_temperature;BMP_pressure;BME280_temperature;BME280_humidity;BME280_pressure;Samples;Min_cycle;Max_cycle;Signal;HPM_P1;HPM_P2
2021/06/22 04:15:38;;;;;;;20.70;15.85;;;;;;;17.59;100.00;98223.63;5873137;23;20133;-72
2021/06/22 04:18:05;;;;;;;18.45;16.25;;;;;;;17.51;100.00;98221.47;4975864;28;20396;-72
2021/06/22 04:20:31;;;;;;;17.35;15.40;;;;;;;17.53;100.00;98219.59;4975728;28;20146;-71
2021/06/22 04:22:56;;;;;;;17.58;15.05;;;;;;;17.54;100.00;98218.66;4975779;28;20098;-71
2021/06/22 04:25:22;;;;;;;16.88;13.63;;;;;;;17.65;100.00;98224.16;4974055;28;20027;-70
2021/06/22 04:27:47;;;;;;;16.52;14.80;;;;;;;17.58;100.00;98214.09;4956137;28;20031;-71
2021/06/22 04:30:13;;;;;;;16.48;14.77;;;;;;;17.47;100.00;98217.31;4999529;23;20043;-69
2021/06/22 04:32:38;;;;;;;14.20;12.90;;;;;;;17.52;100.00;98222.31;4975523;28;20491;-69
2021/06/22 04:35:05;;;;;;;19.05;14.52;;;;;;;17.47;100.00;98219.94;4974445;28;20037;-68
2021/06/22 04:37:30;;;;;;;17.27;13.60;;;;;;;17.58;100.00;98225.41;4975315;28;20463;-69
2021/06/22 04:39:55;;;;;;;15.60;13.63;;;;;;;17.62;100.00;98224.31;4971834;28;20046;-69
2021/06/22 04:42:21;;;;;;;17.58;12.63;;;;;;;17.62;100.00;98224.31;4955958;28;20034;-69
2021/06/22 04:44:47;;;;;;;14.05;12.65;;;;;;;17.61;100.00;98217.41;4956155;28;20102;-68
2021/06/22 04:47:13;;;;;;;14.95;12.70;;;;;;;17.71;100.00;98215.94;4955851;28;20444;-69
2021/06/22 04:49:38;;;;;;;16.10;12.73;;;;;;;18.02;100.00;98216.03;4956023;28;20030;-69
2021/06/22 04:52:03;;;;;;;29.48;14.02;;;;;;;18.15;100.00;98212.59;4955939;28;20032;-69
2021/06/22 04:54:29;;;;;;;13.95;12.50;;;;;;;18.13;99.70;98217.13;4955977;28;20476;-69
2021/06/22 04:56:54;;;;;;;14.82;12.38;;;;;;;18.13;99.40;98219.72;4955609;28;20031;-69
2021/06/22 04:59:20;;;;;;;14.05;12.65;;;;;;;18.18;99.48;98215.06;4955841;28;20136;-68
2021/06/22 05:01:45;;;;;;;11.93;10.80;;;;;;;18.19;98.14;98214.13;4954431;28;20388;-68
2021/06/22 05:04:12;;;;;;;12.38;11.13;;;;;;;18.18;98.98;98217.69;4955570;28;20115;-69
2021/06/22 05:06:37;;;;;;;11.82;10.73;;;;;;;18.21;99.18;98222.75;4955441;28;20027;-69
2021/06/22 05:09:03;;;;;;;14.73;10.32;;;;;;;18.17;99.05;98215.97;4955616;28;20082;-69
2021/06/22 05:11:29;;;;;;;13.75;9.80;;;;;;;18.01;98.65;98223.03;4955342;28;20019;-69
2021/06/22 05:13:54;;;;;;;11.80;10.02;;;;;;;18.11;97.98;98218.13;4955618;28;20019;-68
2021/06/22 05:16:19;;;;;;;10.68;9.23;;;;;;;17.95;98.59;98226.03;4955170;28;20110;-69
2021/06/22 05:18:45;;;;;;;12.27;10.02;;;;;;;17.86;98.10;98227.38;4955451;28;20023;-69
2021/06/22 05:21:11;;;;;;;9.80;8.90;;;;;;;17.84;98.84;98229.25;4955416;28;20031;-69
2021/06/22 05:23:37;;;;;;;10.45;8.90;;;;;;;17.90;98.82;98238.53;4955359;28;20028;-70
2021/06/22 05:26:02;;;;;;;11.55;10.43;;;;;;;17.83;99.29;98235.41;4955171;28;20039;-70
2021/06/22 05:28:27;;;;;;;12.38;10.18;;;;;;;17.97;99.09;98239.88;4955139;28;20023;-70
2021/06/22 05:30:54;;;;;;;11.05;8.88;;;;;;;18.11;97.64;98239.94;4955125;28;20496;-69
2021/06/22 05:33:19;;;;;;;10.15;8.73;;;;;;;18.20;96.94;98239.41;4954985;28;20441;-69
2021/06/22 05:35:44;;;;;;;9.27;8.30;;;;;;;18.35;96.28;98244.69;4955166;28;20027;-70
2021/06/22 05:38:10;;;;;;;10.90;7.75;;;;;;;18.45;94.68;98240.59;4954928;28;20042;-70
2021/06/22 05:40:35;;;;;;;8.38;7.40;;;;;;;18.53;94.75;98243.63;4954932;28;20458;-69
2021/06/22 05:43:00;;;;;;;12.90;6.65;;;;;;;18.68;94.05;98242.75;4954894;29;20465;-69
2021/06/22 05:45:26;;;;;;;9.18;6.97;;;;;;;18.55;93.18;98240.91;4954962;28;20106;-70
2021/06/22 05:47:51;;;;;;;6.80;6.18;;;;;;;18.64;94.00;98246.47;4954617;28;20028;-70
2021/06/22 05:50:17;;;;;;;10.13;6.43;;;;;;;18.55;92.72;98252.25;4954480;28;20033;-69
2021/06/22 05:52:44;;;;;;;7.13;6.43;;;;;;;18.50;94.21;98246.44;4954783;28;20110;-70
2021/06/22 05:55:16;;;;;;;8.45;6.53;;;;;;;18.61;93.62;98245.78;4954765;28;20029;-70
2021/06/22 05:58:01;;;;;;;6.13;5.50;;;;;;;18.76;91.83;98255.44;4954610;28;20030;-70
2021/06/22 06:00:30;;;;;;;6.93;5.22;;;;;;;19.02;91.83;98256.47;4954539;28;20023;-70
2021/06/22 06:02:56;;;;;;;9.00;4.70;;;;;;;19.02;89.22;98253.00;4944770;28;20141;-69
2021/06/22 06:05:22;;;;;;;9.63;5.50;;;;;;;18.72;91.12;98264.41;4954330;28;20472;-70
2021/06/22 06:07:48;;;;;;;7.18;5.57;;;;;;;19.02;91.29;98255.63;4946632;29;20024;-70
2021/06/22 06:10:15;;;;;;;6.70;5.45;;;;;;;19.05;91.08;98256.31;4946216;28;20031;-70
2021/06/22 06:12:41;;;;;;;7.03;5.95;;;;;;;19.31;90.86;98267.00;4954277;28;20235;-70
2021/06/22 06:15:08;;;;;;;6.15;5.20;;;;;;;19.26;90.91;98268.13;4954197;28;20536;-69
2021/06/22 06:17:35;;;;;;;6.95;5.28;;;;;;;19.52;89.04;98270.91;4954171;28;20023;-70
2021/06/22 06:20:01;;;;;;;5.78;5.05;;;;;;;19.42;90.63;98259.28;4954118;28;20027;-70
2021/06/22 06:22:26;;;;;;;6.25;4.90;;;;;;;19.34;91.02;98261.53;4954154;28;20031;-70
2021/06/22 06:24:58;;;;;;;9.45;4.93;;;;;;;19.51;89.38;98258.69;4954025;28;20031;-70
2021/06/22 06:27:28;;;;;;;7.93;5.25;;;;;;;19.72;87.58;98267.88;4953972;28;20027;-69
2021/06/22 06:30:03;;;;;;;5.70;4.30;;;;;;;19.69;87.00;98268.09;4952304;28;20031;-70
2021/06/22 06:32:28;;;;;;;6.32;4.57;;;;;;;20.08;85.39;98279.63;4954090;28;20027;-70
2021/06/22 06:34:53;;;;;;;9.10;4.70;;;;;;;20.23;85.37;98283.91;4953738;28;20027;-70
2021/06/22 06:37:19;;;;;;;4.72;4.30;;;;;;;20.35;83.50;98291.91;4953822;28;20027;-70
2021/06/22 06:39:45;;;;;;;6.03;4.22;;;;;;;20.91;82.31;98301.34;4953764;28;20432;-70
2021/06/22 06:42:10;;;;;;;7.13;4.00;;;;;;;21.05;80.29;98297.78;4953926;28;20031;-69
2021/06/22 06:44:36;;;;;;;6.45;4.13;;;;;;;20.73;81.07;98298.16;4953875;28;20488;-70
2021/06/22 06:47:02;;;;;;;8.63;3.85;;;;;;;21.15;80.20;98298.81;4953637;28;20100;-70
2021/06/22 06:49:27;;;;;;;7.60;4.70;;;;;;;21.47;78.58;98296.63;4953898;28;20480;-70
2021/06/22 06:51:53;;;;;;;8.70;4.78;;;;;;;21.55;77.80;98302.19;4953502;28;20050;-70
2021/06/22 06:54:18;;;;;;;7.72;3.95;;;;;;;21.75;78.37;98300.78;4953864;28;20026;-70
2021/06/22 06:56:43;;;;;;;4.97;4.18;;;;;;;21.87;77.41;98300.88;4953446;28;20023;-70
2021/06/22 06:59:09;;;;;;;6.65;4.55;;;;;;;22.42;73.20;98291.59;4953763;28;20024;-70
2021/06/22 07:01:34;;;;;;;7.63;4.65;;;;;;;23.05;71.34;98295.63;4954065;28;20106;-70
2021/06/22 07:04:00;;;;;;;7.20;5.20;;;;;;;24.07;68.84;98284.91;4957733;28;20027;-70
2021/06/22 07:06:25;;;;;;;8.23;4.38;;;;;;;23.14;69.82;98308.16;4967432;28;20034;-70
2021/06/22 07:08:51;;;;;;;6.50;4.00;;;;;;;22.65;72.01;98309.22;4971477;28;20034;-70
2021/06/22 07:11:20;;;;;;;8.30;4.03;;;;;;;22.96;71.53;98304.28;4957580;28;20075;-70
2021/06/22 07:13:46;;;;;;;;;;;;;;;22.74;73.63;98305.03;4957694;28;20015;-70
2021/06/22 07:16:11;;;;;;;4.20;3.50;;;;;;;23.12;73.38;98310.09;4957582;28;20422;-70
2021/06/22 07:18:36;;;;;;;5.32;3.90;;;;;;;22.69;73.96;98320.38;4956221;28;20684;-70
2021/06/22 07:21:01;;;;;;;5.50;3.95;;;;;;;22.81;73.54;98308.88;4957405;28;20407;-70
2021/06/22 07:23:27;;;;;;;5.70;4.60;;;;;;;22.79;74.46;98309.00;4957260;28;20027;-70
2021/06/22 07:25:53;;;;;;;4.78;4.30;;;;;;;22.74;73.67;98311.16;4957271;28;20023;-70
2021/06/22 07:28:19;;;;;;;7.10;4.70;;;;;;;23.10;73.71;98309.34;4957189;28;20031;-70
2021/06/22 07:30:44;;;;;;;9.23;5.00;;;;;;;23.30;73.27;98306.00;4957133;28;20125;-70
2021/06/22 07:33:09;;;;;;;7.20;4.95;;;;;;;23.73;70.98;98313.25;4957149;28;20024;-70
2021/06/22 07:35:35;;;;;;;7.93;5.68;;;;;;;23.76;69.78;98313.00;4957159;28;20031;-70
2021/06/22 07:38:00;;;;;;;7.82;5.13;;;;;;;23.90;71.71;98305.78;4956965;28;20027;-70
2021/06/22 07:40:26;;;;;;;6.80;4.78;;;;;;;24.17;68.40;98315.94;4956848;28;20030;-70
2021/06/22 07:42:53;;;;;;;7.00;5.60;;;;;;;23.17;72.93;98321.16;4956964;28;20081;-69
2021/06/22 07:45:19;;;;;;;7.10;5.57;;;;;;;22.77;73.79;98328.56;4956948;28;20031;-70
2021/06/22 07:47:45;;;;;;;7.45;6.00;;;;;;;22.23;75.93;98319.34;4956918;28;20579;-70
2021/06/22 07:50:11;;;;;;;7.60;5.47;;;;;;;22.14;76.46;98312.09;4956803;28;20039;-70
2021/06/22 07:52:37;;;;;;;9.93;5.13;;;;;;;22.12;77.34;98311.38;4956849;28;20016;-70
2021/06/22 07:55:03;;;;;;;7.75;5.00;;;;;;;22.06;77.15;98309.97;4956735;28;20055;-70
2021/06/22 07:57:28;;;;;;;7.10;4.25;;;;;;;22.04;76.58;98309.22;4956691;28;20031;-70
2021/06/22 07:59:54;;;;;;;4.75;4.32;;;;;;;21.85;77.20;98315.94;4956589;28;20106;-70
2021/06/22 08:02:19;;;;;;;4.72;4.20;;;;;;;21.83;77.80;98315.22;4956625;28;20110;-70
2021/06/22 08:04:44;;;;;;;6.28;4.78;;;;;;;21.64;77.79;98316.53;4956560;28;20031;-70
2021/06/22 08:07:09;;;;;;;7.20;5.45;;;;;;;21.34;79.89;98318.69;4956462;28;20067;-70
2021/06/22 08:09:35;;;;;;;7.57;5.53;;;;;;;21.50;79.45;98314.00;4956594;28;20027;-70
2021/06/22 08:12:01;;;;;;;6.28;5.68;;;;;;;21.33;79.76;98312.56;4956327;28;20031;-70
2021/06/22 08:14:26;;;;;;;13.50;5.90;;;;;;;21.23;79.53;98322.03;4956495;28;20061;-70
2021/06/22 08:16:52;;;;;;;10.32;6.32;;;;;;;21.24;80.13;98319.28;4956094;28;20031;-69
2021/06/22 08:19:17;;;;;;;7.50;6.10;;;;;;;21.15;81.41;98322.53;4956499;28;20031;-70
2021/06/22 08:21:43;;;;;;;9.20;5.95;;;;;;;21.51;80.79;98328.88;4956261;28;20436;-70
2021/06/22 08:24:08;;;;;;;7.32;6.50;;;;;;;21.52;81.23;98330.59;4955926;28;20035;-70
2021/06/22 08:26:33;;;;;;;10.65;6.15;;;;;;;21.67;80.20;98342.69;4956024;28;20395;-70
2021/06/22 08:29:00;;;;;;;10.50;6.22;;;;;;;21.74;81.43;98337.81;4956318;28;20030;-70
2021/06/22 08:31:26;;;;;;;8.07;5.85;;;;;;;21.95;82.61;98335.44;4955960;28;20023;-70
2021/06/22 08:33:51;;;;;;;11.98;6.43;;;;;;;22.32;79.96;98331.84;4956149;28;20023;-70
2021/06/22 08:36:16;;;;;;;7.93;5.68;;;;;;;22.03;76.92;98343.66;4955800;28;20035;-70
2021/06/22 08:38:42;;;;;;;7.95;5.97;;;;;;;22.04;79.44;98340.91;4956122;28;20038;-70
2021/06/22 08:41:08;;;;;;;8.82;5.35;;;;;;;22.21;79.47;98347.66;4955961;28;20376;-70
2021/06/22 08:43:33;;;;;;;5.95;4.90;;;;;;;22.39;78.31;98344.63;4955840;28;20027;-69
2021/06/22 08:46:04;;;;;;;6.75;5.15;;;;;;;22.58;76.45;98339.69;4955848;28;20031;-70
2021/06/22 08:48:30;;;;;;;6.25;4.80;;;;;;;22.39;76.43;98339.34;4955731;28;20566;-70
2021/06/22 08:50:56;;;;;;;6.55;5.45;;;;;;;22.08;80.29;98325.69;4955647;28;20110;-70
2021/06/22 08:53:22;;;;;;;6.97;5.40;;;;;;;21.79;78.97;98331.25;4955567;28;20019;-70
2021/06/22 08:55:47;;;;;;;8.02;4.47;;;;;;;21.75;79.07;98329.78;4955576;28;20034;-70
2021/06/22 08:58:15;;;;;;;7.90;5.28;;;;;;;21.71;78.55;98328.34;4955423;28;20026;-69
2021/06/22 09:00:47;;;;;;;8.10;5.90;;;;;;;21.58;83.16;98327.50;4955648;28;20031;-70
2021/06/22 09:03:24;;;;;;;11.77;6.03;;;;;;;21.43;83.16;98334.69;4955513;28;20566;-72
2021/06/22 09:05:54;;;;;;;9.63;5.82;;;;;;;21.66;81.38;98335.75;4955646;28;20027;-70
2021/06/22 09:08:23;;;;;;;;;;;;;;;21.35;85.03;98330.91;4955662;28;20023;-73
2021/06/22 09:11:13;;;;;;;10.95;6.68;;;;;;;20.85;86.31;98328.09;4955668;28;19910;-72
2021/06/22 09:13:39;;;;;;;10.52;6.28;;;;;;;20.83;86.31;98334.41;4937617;29;20035;-71
2021/06/22 09:16:14;;;;;;;7.43;6.00;;;;;;;21.09;87.98;98340.56;4955385;28;20035;-73
2021/06/22 09:18:44;;;;;;;15.00;7.68;;;;;;;21.00;86.70;98342.03;4955198;28;20046;-72
2021/06/22 09:21:22;;;;;;;7.60;6.25;;;;;;;21.50;83.91;98345.66;4954588;28;20507;-72
2021/06/22 09:23:53;;;;;;;13.40;6.88;;;;;;;22.02;82.15;98349.91;4955177;28;20035;-70
2021/06/22 09:26:27;;;;;;;12.27;7.38;;;;;;;22.25;82.45;98367.59;4954404;28;20405;-72
2021/06/22 09:29:07;;;;;;;12.13;8.13;;;;;;;21.78;85.33;98361.22;4953862;29;20034;-73
2021/06/22 09:31:33;;;;;;;11.38;7.75;;;;;;;23.31;76.47;98352.66;4955085;28;20446;-73
2021/06/22 09:33:59;;;;;;;11.40;7.65;;;;;;;22.78;75.59;98357.53;4955184;28;20030;-70
2021/06/22 09:36:28;;;;;;;15.27;7.85;;;;;;;22.60;80.30;98356.25;4954779;28;20027;-73
2021/06/22 09:39:06;;;;;;;11.60;7.75;;;;;;;22.00;78.47;98355.28;4954702;28;20035;-70
2021/06/22 09:41:40;;;;;;;9.15;7.15;;;;;;;22.98;76.39;98353.41;4953545;28;20511;-69
2021/06/22 09:44:08;;;;;;;10.27;7.05;;;;;;;23.37;76.66;98369.84;4954738;28;20393;-70
2021/06/22 09:46:41;;;;;;;9.77;5.78;;;;;;;24.60;71.31;98359.16;4954588;28;20667;-70
2021/06/22 09:49:30;;;;;;;9.32;6.05;;;;;;;25.53;66.58;98365.56;4954794;28;20027;-70
2021/06/22 09:52:03;;;;;;;7.63;6.33;;;;;;;23.13;72.78;98377.00;4954517;28;20038;-74
2021/06/22 09:54:44;;;;;;;6.95;5.85;;;;;;;24.07;72.14;98368.78;4954726;28;20255;-74
2021/06/22 09:57:09;;;;;;;8.57;5.85;;;;;;;22.89;70.72;98387.63;4954427;28;20458;-73
2021/06/22 10:00:10;;;;;;;7.30;4.97;;;;;;;23.20;73.64;98384.34;4954605;28;20087;-73
2021/06/22 10:02:50;;;;;;;8.52;5.65;;;;;;;23.21;73.65;98386.03;4954429;28;20293;-73
2021/06/22 10:05:16;;;;;;;8.30;5.75;;;;;;;23.11;71.95;98374.44;4954500;28;20023;-73
2021/06/22 10:07:42;;;;;;;16.60;10.40;;;;;;;22.84;75.21;98380.84;4954147;28;20027;-73
2021/06/22 10:10:08;;;;;;;9.68;5.28;;;;;;;22.27;77.09;98394.72;4954360;28;20030;-73
2021/06/22 10:12:37;;;;;;;6.55;5.40;;;;;;;22.13;75.85;98405.41;4954231;28;20019;-73
2021/06/22 10:15:03;;;;;;;10.57;5.65;;;;;;;21.70;78.49;98407.53;4954375;28;20046;-73
2021/06/22 10:17:30;;;;;;;10.23;6.25;;;;;;;21.49;80.48;98402.81;4954231;28;20023;-73
2021/06/22 10:19:58;;;;;;;12.68;6.40;;;;;;;21.12;83.80;98404.41;4954191;28;20083;-73
2021/06/22 10:22:27;;;;;;;8.25;6.43;;;;;;;21.01;81.32;98402.50;4954096;28;20019;-73
2021/06/22 10:24:56;;;;;;;11.53;7.20;;;;;;;21.04;85.16;98406.75;4954147;28;20031;-73
2021/06/22 10:27:21;;;;;;;9.27;7.45;;;;;;;20.96;83.67;98409.03;4954092;28;20085;-69
2021/06/22 10:29:53;;;;;;;11.40;9.90;;;;;;;21.04;86.02;98412.84;4954056;28;20143;-70
2021/06/22 10:32:20;;;;;;;14.93;8.30;;;;;;;21.12;86.05;98409.69;4988640;23;20052;-72
2021/06/22 10:34:47;;;;;;;13.95;7.85;;;;;;;21.27;84.37;98408.69;4933895;28;20039;-72
2021/06/22 10:37:17;;;;;;;18.02;14.68;;;;;;;21.62;82.55;98413.38;4936890;29;20046;-73
2021/06/22 10:39:56;;;;;;;7.72;6.80;;;;;;;21.57;81.60;98428.66;4947126;29;20028;-72
2021/06/22 10:42:22;;;;;;;8.27;6.88;;;;;;;21.68;83.47;98423.47;4946823;29;20114;-72
2021/06/22 10:44:58;;;;;;;9.93;6.28;;;;;;;21.63;81.08;98436.16;4938436;28;20122;-73
2021/06/22 10:47:24;;;;;;;14.05;9.05;;;;;;;21.31;85.14;98438.31;4924716;29;20023;-72
2021/06/22 10:49:58;;;;;;;7.45;6.20;;;;;;;21.46;82.71;98434.66;4945783;28;20401;-72
2021/06/22 10:52:50;;;;;;;9.93;5.97;;;;;;;21.68;83.39;98434.03;4947142;29;20035;-72
2021/06/22 10:55:28;;;;;;;6.07;5.18;;;;;;;22.20;77.90;98419.88;4938075;28;20054;-72
2021/06/22 10:57:56;;;;;;;6.63;4.70;;;;;;;22.79;75.31;98422.59;4944009;28;20413;-73
2021/06/22 11:00:22;;;;;;;5.63;5.13;;;;;;;23.04;75.63;98431.38;4946555;28;20027;-72
2021/06/22 11:03:02;;;;;;;5.68;4.93;;;;;;;23.01;74.40;98431.59;4938400;28;20035;-72
2021/06/22 11:05:29;;;;;;;9.57;5.13;;;;;;;23.07;73.80;98426.72;4925523;29;20502;-72
2021/06/22 11:08:10;;;;;;;6.63;5.28;;;;;;;23.92;69.40;98415.00;4944993;28;20058;-72
2021/06/22 11:10:55;;;;;;;8.93;4.82;;;;;;;23.63;69.84;98423.38;4948473;28;20027;-72
2021/06/22 11:13:40;;;;;;;7.25;6.18;;;;;;;23.57;71.32;98416.75;4924011;29;20047;-72
2021/06/22 11:16:18;;;;;;;6.75;5.07;;;;;;;23.20;72.48;98421.34;4943506;28;20086;-72
2021/06/22 11:21:24;;;;;;;6.75;5.55;;;;;;;22.98;73.25;98422.13;4922681;29;20031;-72
2021/06/22 11:24:15;;;;;;;20.65;15.40;;;;;;;22.99;75.31;98417.69;4945495;28;20110;-72
2021/06/22 11:26:49;;;;;;;7.78;6.38;;;;;;;22.89;75.49;98421.97;4921288;29;20079;-72
2021/06/22 11:29:42;;;;;;;7.78;5.30;;;;;;;22.31;76.15;98408.53;4926362;28;20035;-72
2021/06/22 11:32:08;;;;;;;5.45;4.85;;;;;;;22.46;72.16;98404.78;4925608;29;20042;-72
2021/06/22 11:34:54;;;;;;;10.98;4.50;;;;;;;22.01;75.34;98414.19;4921819;29;20028;-72
2021/06/22 11:37:22;;;;;;;6.53;4.47;;;;;;;22.26;74.19;98419.41;4925531;29;20048;-72
2021/06/22 11:40:01;;;;;;;6.22;4.38;;;;;;;22.01;76.44;98420.28;4925979;28;20059;-72
2021/06/22 11:42:26;;;;;;;9.17;4.77;;;;;;;22.08;76.01;98416.25;4920618;29;20028;-72
2021/06/22 11:45:18;;;;;;;7.97;5.50;;;;;;;21.91;76.75;98428.97;4924917;29;20035;-72
2021/06/22 11:47:46;;;;;;;6.32;5.10;;;;;;;21.67;77.69;98427.06;4926180;29;20587;-72
2021/06/22 11:50:11;;;;;;;6.53;5.88;;;;;;;21.68;76.85;98420.00;4929482;29;21383;-72
2021/06/22 11:52:39;;;;;;;7.37;6.07;;;;;;;21.40;79.08;98423.69;4924975;28;20032;-72
2021/06/22 11:55:15;;;;;;;6.88;6.18;;;;;;;21.44;78.60;98426.00;4929010;29;21698;-72
2021/06/22 11:57:45;;;;;;;8.55;6.32;;;;;;;21.29;79.69;98427.84;4925256;29;20031;-72
2021/06/22 12:00:16;;;;;;;7.78;6.65;;;;;;;21.04;78.76;98433.09;4929181;29;20051;-72
2021/06/22 12:02:56;;;;;;;10.15;6.75;;;;;;;20.74;81.07;98430.66;4924326;29;20092;-72
2021/06/22 12:05:22;;;;;;;;;;;;;;;20.78;81.28;98435.63;4929645;29;20496;-72
2021/06/22 12:07:53;;;;;;;7.57;6.78;;;;;;;20.65;80.93;98437.38;4925389;29;19918;-72
2021/06/22 12:10:21;;;;;;;10.13;6.72;;;;;;;20.62;80.87;98448.09;4926726;29;20024;-72
2021/06/22 12:12:48;;;;;;;10.65;7.25;;;;;;;20.69;79.91;98444.13;4923331;29;20445;-72
2021/06/22 12:15:26;;;;;;;32.00;20.98;;;;;;;20.62;80.42;98447.25;4928510;29;20027;-72
2021/06/22 12:17:51;;;;;;;11.68;7.47;;;;;;;20.40;80.14;98439.84;4928890;29;20447;-72
2021/06/22 12:20:25;;;;;;;13.05;6.60;;;;;;;20.50;79.43;98443.59;4927283;29;20028;-72
2021/06/22 12:22:52;;;;;;;12.30;6.35;;;;;;;20.67;78.85;98446.00;4923784;29;21412;-72
2021/06/22 12:25:23;;;;;;;7.20;6.50;;;;;;;20.65;79.52;98442.66;4925703;29;20404;-72
2021/06/22 12:27:56;;;;;;;8.05;5.10;;;;;;;20.95;76.79;98444.22;4928523;29;20105;-72
2021/06/22 12:30:38;;;;;;;6.18;5.38;;;;;;;20.78;79.44;98443.53;4928696;28;20653;-72
2021/06/22 12:33:24;;;;;;;4.07;3.78;;;;;;;20.88;76.38;98443.75;4925658;28;20437;-72
2021/06/22 12:35:52;;;;;;;5.40;3.75;;;;;;;20.96;76.32;98446.75;4926367;29;20092;-72
2021/06/22 12:38:20;;;;;;;4.00;3.55;;;;;;;20.76;79.53;98453.31;4928426;29;20032;-72
2021/06/22 12:40:57;;;;;;;4.90;3.90;;;;;;;20.64;77.02;98456.72;4927898;29;20043;-72
2021/06/22 12:43:50;;;;;;;7.38;3.83;;;;;;;20.32;78.26;98463.19;4926633;29;20039;-71
2021/06/22 12:46:21;;;;;;;7.05;2.90;;;;;;;19.81;76.49;98470.69;4924905;28;20035;-72
2021/06/22 12:48:55;;;;;;;3.38;2.70;;;;;;;19.96;77.57;98464.50;4927208;29;20684;-71
2021/06/22 12:51:21;;;;;;;3.90;2.67;;;;;;;20.01;77.51;98462.44;4922626;29;20119;-72
2021/06/22 12:53:49;;;;;;;8.05;3.08;;;;;;;19.77;79.09;98460.38;4924760;29;20027;-72
2021/06/22 12:56:15;;;;;;;4.72;2.88;;;;;;;19.62;80.21;98466.53;4922829;29;20031;-72
2021/06/22 12:58:55;;;;;;;6.85;3.22;;;;;;;19.62;81.20;98503.34;4928217;29;20070;-72
2021/06/22 13:01:41;;;;;;;3.75;2.58;;;;;;;19.12;83.70;98541.25;4924321;29;20745;-72
2021/06/22 13:04:09;;;;;;;3.72;2.95;;;;;;;18.58;84.35;98550.38;4927966;29;20040;-72
2021/06/22 13:06:38;;;;;;;6.53;3.75;;;;;;;18.33;87.29;98566.59;4923784;29;20034;-71
2021/06/22 13:09:07;;;;;;;11.88;5.53;;;;;;;17.78;94.26;98558.94;4927688;29;21255;-71
2021/06/22 13:11:36;;;;;;;14.23;5.90;;;;;;;17.42;96.78;98560.69;4925136;29;20046;-71
2021/06/22 13:14:31;;;;;;;9.63;5.80;;;;;;;17.25;98.75;98554.56;4927924;29;20309;-71
2021/06/22 13:17:02;;;;;;;15.35;6.05;;;;;;;17.29;99.67;98545.66;4921947;28;20098;-71
2021/06/22 13:19:30;;;;;;;10.85;6.07;;;;;;;17.46;98.88;98516.84;4927744;29;20066;-71
2021/06/22 13:22:00;;;;;;;12.52;6.13;;;;;;;17.42;97.32;98484.72;4923494;29;20374;-71
2021/06/22 13:24:29;;;;;;;6.53;5.18;;;;;;;18.05;96.55;98489.38;4927449;28;20042;-71
2021/06/22 13:26:59;;;;;;;8.32;4.55;;;;;;;18.82;92.18;98495.72;4922632;29;20038;-71
2021/06/22 13:29:24;;;;;;;5.75;4.00;;;;;;;19.60;88.96;98510.47;4927534;29;20063;-71
2021/06/22 13:31:57;;;;;;;7.30;4.05;;;;;;;20.10;86.82;98506.59;4924994;29;20076;-72
2021/06/22 13:34:28;;;;;;;4.93;3.88;;;;;;;19.68;87.04;98513.50;4927676;29;20421;-72
2021/06/22 13:36:54;;;;;;;4.15;3.75;;;;;;;19.98;89.89;98512.63;4922430;29;20035;-72
2021/06/22 13:39:21;;;;;;;6.68;3.25;;;;;;;20.27;87.24;98511.69;4922531;29;20035;-72
2021/06/22 13:41:52;;;;;;;3.00;2.70;;;;;;;20.35;83.76;98491.91;4926963;29;20106;-71
2021/06/22 13:44:42;;;;;;;2.60;2.30;;;;;;;20.40;82.93;98503.00;4927276;29;20036;-71
2021/06/22 13:47:09;;;;;;;2.60;2.40;;;;;;;20.40;83.91;98500.38;4922067;29;20028;-72
2021/06/22 13:49:40;;;;;;;6.07;2.38;;;;;;;20.63;83.23;98491.91;4927248;29;20817;-71
2021/06/22 13:52:07;;;;;;;13.57;8.05;;;;;;;20.95;82.53;98496.91;4927276;29;20046;-72
2021/06/22 13:54:34;;;;;;;5.20;2.55;;;;;;;21.47;81.40;98493.50;4926075;29;20031;-72
2021/06/22 13:57:00;;;;;;;3.90;2.25;;;;;;;21.66;76.75;98493.97;4921484;29;20553;-72
2021/06/22 13:59:26;;;;;;;4.07;2.13;;;;;;;21.36;76.09;98501.28;4926797;29;20032;-72
2021/06/22 14:01:52;;;;;;;3.92;2.20;;;;;;;21.56;76.09;98498.13;4924821;29;20040;-71
2021/06/22 14:04:17;;;;;;;6.43;2.42;;;;;;;21.49;75.94;98497.72;4926681;29;20028;-71
2021/06/22 14:06:42;;;;;;;3.78;2.50;;;;;;;21.08;77.96;98496.94;4920951;29;20127;-72
2021/06/22 14:09:08;;;;;;;2.22;1.90;;;;;;;21.35;76.57;98494.31;4926477;29;20039;-72
2021/06/22 14:11:33;;;;;;;3.75;1.77;;;;;;;20.19;79.33;98495.50;4926349;29;20119;-72
2021/06/22 14:13:58;;;;;;;3.70;1.85;;;;;;;20.35;76.18;98494.53;4922524;29;20103;-71
2021/06/22 14:16:25;;;;;;;4.95;2.03;;;;;;;20.38;77.56;98491.75;4922641;29;20036;-72
2021/06/22 14:18:51;;;;;;;5.97;1.95;;;;;;;19.84;80.12;98491.56;4925001;29;20031;-72
2021/06/22 14:21:18;;;;;;;3.15;2.10;;;;;;;20.01;76.62;98499.25;4921032;29;20024;-72
2021/06/22 14:23:43;;;;;;;2.33;2.13;;;;;;;20.56;80.27;98501.16;4926738;29;20123;-72
2021/06/22 14:26:09;;;;;;;3.67;2.20;;;;;;;20.33;79.24;98517.50;4926530;29;20024;-72
2021/06/22 14:28:35;;;;;;;6.63;1.98;;;;;;;19.92;76.99;98518.22;4922126;29;20130;-72
2021/06/22 14:31:02;;;;;;;2.65;1.90;;;;;;;20.64;72.87;98524.34;4924710;28;20031;-72
2021/06/22 14:33:28;;;;;;;2.50;1.75;;;;;;;21.63;74.13;98525.81;4926458;29;20030;-72
2021/06/22 14:35:56;;;;;;;4.20;2.20;;;;;;;20.63;77.33;98523.50;4921933;29;20509;-72
2021/06/22 14:38:22;;;;;;;1.92;1.30;;;;;;;21.40;72.62;98518.56;4922835;29;20449;-72
2021/06/22 14:40:48;;;;;;;5.75;1.40;;;;;;;21.92;72.61;98536.19;4924076;29;20035;-72
2021/06/22 14:43:13;;;;;;;1.73;1.63;;;;;;;22.59;69.35;98531.50;4925388;28;20028;-72
2021/06/22 14:45:39;;;;;;;4.75;1.35;;;;;;;21.66;69.26;98546.69;4925859;29;20086;-72
2021/06/22 14:48:06;;;;;;;2.58;1.55;;;;;;;22.48;71.75;98544.59;4923515;29;20040;-71
2021/06/22 14:50:33;;;;;;;2.13;1.25;;;;;;;21.13;69.92;98558.94;4920290;29;20111;-72
2021/06/22 14:52:58;;;;;;;3.17;1.50;;;;;;;21.87;67.67;98556.75;4925001;29;20122;-72
2021/06/22 14:55:32;;;;;;;3.45;1.67;;;;;;;22.02;68.27;98547.78;4921569;29;20115;-72
2021/06/22 14:58:05;;;;;;;2.67;1.60;;;;;;;22.60;71.55;98538.47;4920142;28;20041;-72
2021/06/22 15:00:31;;;;;;;2.22;1.40;;;;;;;22.73;63.12;98539.31;4925563;29;20059;-72
2021/06/22 15:03:01;;;;;;;7.35;4.22;;;;;;;22.64;65.72;98529.38;4925132;28;20042;-72
2021/06/22 15:05:27;;;;;;;2.10;1.40;;;;;;;22.04;67.55;98540.59;4926167;29;20027;-72
2021/06/22 15:07:53;;;;;;;3.28;1.77;;;;;;;22.55;67.01;98530.03;4923610;29;20046;-72
2021/06/22 15:10:19;;;;;;;3.15;1.27;;;;;;;22.88;63.70;98532.06;4920112;29;20023;-72
2021/06/22 15:12:45;;;;;;;4.00;1.33;;;;;;;23.04;65.10;98537.09;4926287;28;21291;-72
2021/06/22 15:15:11;;;;;;;2.38;1.60;;;;;;;21.79;67.11;98547.53;4923785;28;20082;-72
2021/06/22 15:17:37;;;;;;;4.20;1.83;;;;;;;20.83;71.48;98540.66;4921682;29;20038;-72
2021/06/22 15:20:08;;;;;;;1.52;1.42;;;;;;;21.50;69.21;98541.59;4926174;29;20031;-71
2021/06/22 15:22:36;;;;;;;1.90;1.35;;;;;;;21.55;69.14;98546.56;4925467;29;20396;-72
2021/06/22 15:25:04;;;;;;;5.70;2.15;;;;;;;21.63;68.86;98546.91;4923861;29;20036;-72
2021/06/22 15:27:29;;;;;;;2.25;1.40;;;;;;;21.79;69.20;98559.88;4923434;29;20028;-73
2021/06/22 15:29:55;;;;;;;3.58;1.60;;;;;;;22.02;66.98;98553.06;4928421;29;20118;-72
2021/06/22 15:32:21;;;;;;;3.25;1.90;;;;;;;21.77;68.53;98560.00;4924447;29;20039;-72
2021/06/22 15:34:46;;;;;;;2.20;2.00;;;;;;;22.06;69.66;98567.75;4929818;29;20034;-73
2021/06/22 15:37:12;;;;;;;2.33;2.13;;;;;;;21.35;70.84;98578.66;4929589;29;20465;-72
2021/06/22 15:39:37;;;;;;;2.63;1.90;;;;;;;21.49;70.57;98581.25;4929773;28;20082;-73
2021/06/22 15:42:03;;;;;;;2.92;2.10;;;;;;;21.09;72.93;98562.72;4924203;29;20565;-72
2021/06/22 15:44:28;;;;;;;4.35;2.50;;;;;;;20.89;73.24;98552.63;4923529;29;20028;-71
2021/06/22 15:46:53;;;;;;;3.30;2.50;;;;;;;21.08;70.28;98554.91;4923457;29;20028;-72
2021/06/22 15:49:22;;;;;;;4.20;2.38;;;;;;;21.24;68.97;98561.72;4923604;28;20032;-72
2021/06/22 15:51:47;;;;;;;2.83;2.17;;;;;;;20.77;68.96;98555.06;4925726;29;20031;-73
2021/06/22 15:54:13;;;;;;;3.05;2.20;;;;;;;20.12;71.90;98559.97;4928062;29;20102;-72
2021/06/22 15:56:38;;;;;;;4.32;2.17;;;;;;;20.82;72.00;98546.03;4929192;29;20028;-71